sensor_id;sensor_type;location;lat;lon;timestamp;P1;durP1;ratioP1;P2;durP2;ratioP2
4096;SDS011;2062;50.694;7.246;2023-08-17T00:01:45;24.55;;;12.20;;
4096;SDS011;2062;50.694;7.246;2023-08-17T00:04:12;18.48;;;11.35;;
4096;SDS011;2062;50.694;7.246;2023-08-17T00:06:39;24.02;;;12.02;;
4096;SDS011;2062;50.694;7.246;2023-08-17T00:09:05;22.52;;;12.40;;
4096;SDS011;2062;50.694;7.246;2023-08-17T00:11:34;20.30;;;11.30;;
4096;SDS011;2062;50.694;7.246;2023-08-17T00:14:00;22.83;;;12.07;;
4096;SDS011;2062;50.694;7.246;2023-08-17T00:16:28;23.50;;;13.20;;
4096;SDS011;2062;50.694;7.246;2023-08-17T00:18:55;21.15;;;12.27;;
4096;SDS011;2062;50.694;7.246;2023-08-17T00:21:22;19.45;;;11.48;;
4096;SDS011;2062;50.694;7.246;2023-08-17T00:23:48;21.80;;;12.23;;
4096;SDS011;2062;50.694;7.246;2023-08-17T00:26:16;22.10;;;12.35;;
4096;SDS011;2062;50.694;7.246;2023-08-17T00:28:44;23.73;;;12.32;;
4096;SDS011;2062;50.694;7.246;2023-08-17T00:31:11;22.92;;;13.00;;
4096;SDS011;2062;50.694;7.246;2023-08-17T00:33:38;25.23;;;12.52;;
4096;SDS011;2062;50.694;7.246;2023-08-17T00:36:04;24.17;;;13.10;;
4096;SDS011;2062;50.694;7.246;2023-08-17T00:38:31;21.85;;;12.93;;
4096;SDS011;2062;50.694;7.246;2023-08-17T00:40:58;22.17;;;12.82;;
4096;SDS011;2062;50.694;7.246;2023-08-17T00:43:25;23.27;;;13.82;;
4096;SDS011;2062;50.694;7.246;2023-08-17T00:45:53;24.65;;;13.20;;
4096;SDS011;2062;50.694;7.246;2023-08-17T00:48:20;25.00;;;13.10;;
4096;SDS011;2062;50.694;7.246;2023-08-17T00:50:47;25.85;;;14.65;;
4096;SDS011;2062;50.694;7.246;2023-08-17T00:53:16;27.55;;;14.88;;
4096;SDS011;2062;50.694;7.246;2023-08-17T00:55:44;27.10;;;14.65;;
4096;SDS011;2062;50.694;7.246;2023-08-17T00:58:11;31.52;;;16.83;;
4096;SDS011;2062;50.694;7.246;2023-08-17T01:00:38;26.63;;;15.30;;
4096;SDS011;2062;50.694;7.246;2023-08-17T01:03:07;30.75;;;16.17;;
4096;SDS011;2062;50.694;7.246;2023-08-17T01:05:33;27.10;;;15.60;;
4096;SDS011;2062;50.694;7.246;2023-08-17T01:08:01;25.13;;;14.75;;
4096;SDS011;2062;50.694;7.246;2023-08-17T01:10:29;27.70;;;15.35;;
4096;SDS011;2062;50.694;7.246;2023-08-17T01:13:04;28.23;;;14.93;;
4096;SDS011;2062;50.694;7.246;2023-08-17T01:15:40;23.75;;;13.85;;
4096;SDS011;2062;50.694;7.246;2023-08-17T01:18:15;25.60;;;14.10;;
4096;SDS011;2062;50.694;7.246;2023-08-17T01:20:47;23.35;;;13.52;;
4096;SDS011;2062;50.694;7.246;2023-08-17T01:23:16;27.48;;;14.20;;
4096;SDS011;2062;50.694;7.246;2023-08-17T01:25:43;23.23;;;12.60;;
4096;SDS011;2062;50.694;7.246;2023-08-17T01:28:10;24.38;;;13.93;;
4096;SDS011;2062;50.694;7.246;2023-08-17T01:30:38;21.52;;;13.20;;
4096;SDS011;2062;50.694;7.246;2023-08-17T01:33:09;22.08;;;13.07;;
4096;SDS011;2062;50.694;7.246;2023-08-17T01:35:42;21.60;;;13.68;;
4096;SDS011;2062;50.694;7.246;2023-08-17T01:38:14;21.73;;;13.03;;
4096;SDS011;2062;50.694;7.246;2023-08-17T01:40:45;22.80;;;12.93;;
4096;SDS011;2062;50.694;7.246;2023-08-17T01:43:13;24.92;;;13.63;;
4096;SDS011;2062;50.694;7.246;2023-08-17T01:45:42;22.77;;;13.48;;
4096;SDS011;2062;50.694;7.246;2023-08-17T01:48:09;24.15;;;13.30;;
4096;SDS011;2062;50.694;7.246;2023-08-17T01:50:36;23.50;;;13.13;;
4096;SDS011;2062;50.694;7.246;2023-08-17T01:53:03;23.85;;;12.95;;
4096;SDS011;2062;50.694;7.246;2023-08-17T01:55:31;25.02;;;13.82;;
4096;SDS011;2062;50.694;7.246;2023-08-17T01:58:00;22.75;;;14.02;;
4096;SDS011;2062;50.694;7.246;2023-08-17T02:00:27;24.75;;;13.93;;
4096;SDS011;2062;50.694;7.246;2023-08-17T02:02:54;25.80;;;14.43;;
4096;SDS011;2062;50.694;7.246;2023-08-17T02:05:20;23.25;;;14.07;;
4096;SDS011;2062;50.694;7.246;2023-08-17T02:07:47;24.40;;;13.40;;
4096;SDS011;2062;50.694;7.246;2023-08-17T02:10:14;24.40;;;13.98;;
4096;SDS011;2062;50.694;7.246;2023-08-17T02:12:42;23.58;;;14.30;;
4096;SDS011;2062;50.694;7.246;2023-08-17T02:15:09;24.70;;;13.90;;
4096;SDS011;2062;50.694;7.246;2023-08-17T02:17:36;23.80;;;14.18;;
4096;SDS011;2062;50.694;7.246;2023-08-17T02:20:03;25.52;;;14.15;;
4096;SDS011;2062;50.694;7.246;2023-08-17T02:22:31;24.08;;;14.68;;
4096;SDS011;2062;50.694;7.246;2023-08-17T02:24:58;24.25;;;14.52;;
4096;SDS011;2062;50.694;7.246;2023-08-17T02:27:24;29.73;;;15.47;;
4096;SDS011;2062;50.694;7.246;2023-08-17T02:29:53;26.88;;;15.70;;
4096;SDS011;2062;50.694;7.246;2023-08-17T02:32:19;26.40;;;14.55;;
4096;SDS011;2062;50.694;7.246;2023-08-17T02:34:46;24.42;;;13.85;;
4096;SDS011;2062;50.694;7.246;2023-08-17T02:37:13;25.08;;;14.45;;
4096;SDS011;2062;50.694;7.246;2023-08-17T02:39:40;23.73;;;14.40;;
4096;SDS011;2062;50.694;7.246;2023-08-17T02:42:06;24.30;;;15.15;;
4096;SDS011;2062;50.694;7.246;2023-08-17T02:44:33;25.65;;;14.05;;
4096;SDS011;2062;50.694;7.246;2023-08-17T02:47:01;24.55;;;14.55;;
4096;SDS011;2062;50.694;7.246;2023-08-17T02:49:28;26.73;;;15.15;;
4096;SDS011;2062;50.694;7.246;2023-08-17T02:51:55;22.47;;;13.80;;
4096;SDS011;2062;50.694;7.246;2023-08-17T02:54:22;25.33;;;15.00;;
4096;SDS011;2062;50.694;7.246;2023-08-17T02:56:49;26.20;;;15.10;;
4096;SDS011;2062;50.694;7.246;2023-08-17T02:59:15;25.00;;;14.15;;
4096;SDS011;2062;50.694;7.246;2023-08-17T03:01:43;25.50;;;15.02;;
4096;SDS011;2062;50.694;7.246;2023-08-17T03:04:12;24.30;;;14.77;;
4096;SDS011;2062;50.694;7.246;2023-08-17T03:06:38;24.30;;;14.85;;
4096;SDS011;2062;50.694;7.246;2023-08-17T03:09:05;28.27;;;15.18;;
4096;SDS011;2062;50.694;7.246;2023-08-17T03:11:32;27.60;;;14.60;;
4096;SDS011;2062;50.694;7.246;2023-08-17T03:13:59;25.55;;;14.85;;
4096;SDS011;2062;50.694;7.246;2023-08-17T03:16:26;27.17;;;15.07;;
4096;SDS011;2062;50.694;7.246;2023-08-17T03:18:55;27.13;;;15.48;;
4096;SDS011;2062;50.694;7.246;2023-08-17T03:21:24;24.90;;;14.77;;
4096;SDS011;2062;50.694;7.246;2023-08-17T03:23:51;27.15;;;15.80;;
4096;SDS011;2062;50.694;7.246;2023-08-17T03:26:18;26.05;;;15.13;;
4096;SDS011;2062;50.694;7.246;2023-08-17T03:28:45;28.17;;;15.50;;
4096;SDS011;2062;50.694;7.246;2023-08-17T03:31:12;24.10;;;14.13;;
4096;SDS011;2062;50.694;7.246;2023-08-17T03:33:39;27.08;;;14.77;;
4096;SDS011;2062;50.694;7.246;2023-08-17T03:36:06;24.02;;;14.30;;
4096;SDS011;2062;50.694;7.246;2023-08-17T03:38:34;28.02;;;15.30;;
4096;SDS011;2062;50.694;7.246;2023-08-17T03:41:02;26.83;;;14.43;;
4096;SDS011;2062;50.694;7.246;2023-08-17T03:43:30;25.90;;;14.95;;
4096;SDS011;2062;50.694;7.246;2023-08-17T03:45:56;24.33;;;13.95;;
4096;SDS011;2062;50.694;7.246;2023-08-17T03:48:23;25.65;;;13.93;;
4096;SDS011;2062;50.694;7.246;2023-08-17T03:50:50;27.30;;;15.73;;
4096;SDS011;2062;50.694;7.246;2023-08-17T03:53:18;28.73;;;15.83;;
4096;SDS011;2062;50.694;7.246;2023-08-17T03:55:47;28.13;;;15.77;;
4096;SDS011;2062;50.694;7.246;2023-08-17T03:58:14;26.75;;;15.65;;
4096;SDS011;2062;50.694;7.246;2023-08-17T04:00:41;26.20;;;15.43;;
4096;SDS011;2062;50.694;7.246;2023-08-17T04:03:08;26.20;;;15.52;;
4096;SDS011;2062;50.694;7.246;2023-08-17T04:05:34;24.83;;;15.87;;
4096;SDS011;2062;50.694;7.246;2023-08-17T04:08:01;26.15;;;16.27;;
4096;SDS011;2062;50.694;7.246;2023-08-17T04:10:28;25.50;;;15.38;;
4096;SDS011;2062;50.694;7.246;2023-08-17T04:12:57;28.08;;;15.85;;
4096;SDS011;2062;50.694;7.246;2023-08-17T04:15:23;28.02;;;16.55;;
4096;SDS011;2062;50.694;7.246;2023-08-17T04:17:50;28.77;;;17.17;;
4096;SDS011;2062;50.694;7.246;2023-08-17T04:20:17;26.52;;;15.68;;
4096;SDS011;2062;50.694;7.246;2023-08-17T04:22:44;25.70;;;15.27;;
4096;SDS011;2062;50.694;7.246;2023-08-17T04:25:11;25.00;;;14.65;;
4096;SDS011;2062;50.694;7.246;2023-08-17T04:27:38;23.83;;;14.98;;
4096;SDS011;2062;50.694;7.246;2023-08-17T04:30:08;24.23;;;14.77;;
4096;SDS011;2062;50.694;7.246;2023-08-17T04:32:35;23.80;;;14.32;;
4096;SDS011;2062;50.694;7.246;2023-08-17T04:35:03;22.65;;;13.85;;
4096;SDS011;2062;50.694;7.246;2023-08-17T04:37:30;22.10;;;13.73;;
4096;SDS011;2062;50.694;7.246;2023-08-17T04:39:57;21.83;;;13.80;;
4096;SDS011;2062;50.694;7.246;2023-08-17T04:42:23;24.10;;;13.50;;
4096;SDS011;2062;50.694;7.246;2023-08-17T04:44:50;22.27;;;12.90;;
4096;SDS011;2062;50.694;7.246;2023-08-17T04:47:19;23.00;;;13.48;;
4096;SDS011;2062;50.694;7.246;2023-08-17T04:49:45;24.88;;;12.82;;
4096;SDS011;2062;50.694;7.246;2023-08-17T04:52:12;24.23;;;13.10;;
4096;SDS011;2062;50.694;7.246;2023-08-17T04:54:39;22.37;;;13.30;;
4096;SDS011;2062;50.694;7.246;2023-08-17T04:57:06;23.67;;;12.57;;
4096;SDS011;2062;50.694;7.246;2023-08-17T04:59:33;23.55;;;11.80;;
4096;SDS011;2062;50.694;7.246;2023-08-17T05:01:59;20.52;;;11.00;;
4096;SDS011;2062;50.694;7.246;2023-08-17T05:04:29;21.67;;;12.18;;
4096;SDS011;2062;50.694;7.246;2023-08-17T05:06:56;20.83;;;11.27;;
4096;SDS011;2062;50.694;7.246;2023-08-17T05:09:23;22.00;;;12.05;;
4096;SDS011;2062;50.694;7.246;2023-08-17T05:11:49;20.42;;;11.65;;
4096;SDS011;2062;50.694;7.246;2023-08-17T05:14:16;21.75;;;11.65;;
4096;SDS011;2062;50.694;7.246;2023-08-17T05:16:43;23.02;;;11.57;;
4096;SDS011;2062;50.694;7.246;2023-08-17T05:19:10;23.73;;;12.50;;
4096;SDS011;2062;50.694;7.246;2023-08-17T05:21:38;24.38;;;12.50;;
4096;SDS011;2062;50.694;7.246;2023-08-17T05:24:05;22.88;;;13.07;;
4096;SDS011;2062;50.694;7.246;2023-08-17T05:26:32;23.75;;;12.88;;
4096;SDS011;2062;50.694;7.246;2023-08-17T05:28:59;24.10;;;13.63;;
4096;SDS011;2062;50.694;7.246;2023-08-17T05:31:26;25.50;;;13.70;;
4096;SDS011;2062;50.694;7.246;2023-08-17T05:33:53;28.60;;;15.10;;
4096;SDS011;2062;50.694;7.246;2023-08-17T05:36:20;25.70;;;14.70;;
4096;SDS011;2062;50.694;7.246;2023-08-17T05:38:48;29.48;;;14.02;;
4096;SDS011;2062;50.694;7.246;2023-08-17T05:41:14;28.15;;;15.35;;
4096;SDS011;2062;50.694;7.246;2023-08-17T05:43:42;28.23;;;15.23;;
4096;SDS011;2062;50.694;7.246;2023-08-17T05:46:09;24.02;;;13.13;;
4096;SDS011;2062;50.694;7.246;2023-08-17T05:48:36;26.77;;;14.10;;
4096;SDS011;2062;50.694;7.246;2023-08-17T05:51:03;26.80;;;15.13;;
4096;SDS011;2062;50.694;7.246;2023-08-17T05:53:30;29.17;;;16.00;;
4096;SDS011;2062;50.694;7.246;2023-08-17T05:55:58;28.00;;;15.53;;
4096;SDS011;2062;50.694;7.246;2023-08-17T05:58:25;28.52;;;14.65;;
4096;SDS011;2062;50.694;7.246;2023-08-17T06:00:51;25.17;;;14.25;;
4096;SDS011;2062;50.694;7.246;2023-08-17T06:03:18;23.02;;;13.35;;
4096;SDS011;2062;50.694;7.246;2023-08-17T06:05:45;22.58;;;12.60;;
4096;SDS011;2062;50.694;7.246;2023-08-17T06:08:12;21.03;;;12.17;;
4096;SDS011;2062;50.694;7.246;2023-08-17T06:10:38;19.92;;;12.93;;
4096;SDS011;2062;50.694;7.246;2023-08-17T06:13:07;22.85;;;12.82;;
4096;SDS011;2062;50.694;7.246;2023-08-17T06:15:34;22.17;;;12.05;;
4096;SDS011;2062;50.694;7.246;2023-08-17T06:18:00;29.60;;;12.20;;
4096;SDS011;2062;50.694;7.246;2023-08-17T06:20:27;20.87;;;11.63;;
4096;SDS011;2062;50.694;7.246;2023-08-17T06:22:54;21.60;;;12.30;;
4096;SDS011;2062;50.694;7.246;2023-08-17T06:25:21;23.38;;;11.52;;
4096;SDS011;2062;50.694;7.246;2023-08-17T06:27:48;20.95;;;11.98;;
4096;SDS011;2062;50.694;7.246;2023-08-17T06:30:17;24.20;;;12.77;;
4096;SDS011;2062;50.694;7.246;2023-08-17T06:32:44;24.63;;;12.83;;
4096;SDS011;2062;50.694;7.246;2023-08-17T06:35:11;25.70;;;13.48;;
4096;SDS011;2062;50.694;7.246;2023-08-17T06:37:37;23.77;;;13.27;;
4096;SDS011;2062;50.694;7.246;2023-08-17T06:40:05;26.88;;;14.05;;
4096;SDS011;2062;50.694;7.246;2023-08-17T06:42:33;27.02;;;14.25;;
4096;SDS011;2062;50.694;7.246;2023-08-17T06:44:59;25.73;;;13.87;;
4096;SDS011;2062;50.694;7.246;2023-08-17T06:47:28;29.48;;;13.48;;
4096;SDS011;2062;50.694;7.246;2023-08-17T06:49:55;24.65;;;13.25;;
4096;SDS011;2062;50.694;7.246;2023-08-17T06:52:22;26.65;;;13.25;;
4096;SDS011;2062;50.694;7.246;2023-08-17T06:54:49;25.50;;;13.07;;
4096;SDS011;2062;50.694;7.246;2023-08-17T06:57:16;22.90;;;12.23;;
4096;SDS011;2062;50.694;7.246;2023-08-17T06:59:43;25.80;;;12.40;;
4096;SDS011;2062;50.694;7.246;2023-08-17T07:02:11;23.27;;;12.85;;
4096;SDS011;2062;50.694;7.246;2023-08-17T07:04:39;22.83;;;11.95;;
4096;SDS011;2062;50.694;7.246;2023-08-17T07:07:06;25.63;;;12.18;;
4096;SDS011;2062;50.694;7.246;2023-08-17T07:09:33;21.00;;;11.87;;
4096;SDS011;2062;50.694;7.246;2023-08-17T07:11:59;22.70;;;11.85;;
4096;SDS011;2062;50.694;7.246;2023-08-17T07:14:26;22.52;;;12.00;;
4096;SDS011;2062;50.694;7.246;2023-08-17T07:16:53;23.05;;;11.25;;
4096;SDS011;2062;50.694;7.246;2023-08-17T07:19:20;24.35;;;11.73;;
4096;SDS011;2062;50.694;7.246;2023-08-17T07:21:49;21.70;;;11.33;;
4096;SDS011;2062;50.694;7.246;2023-08-17T07:24:16;23.02;;;11.77;;
4096;SDS011;2062;50.694;7.246;2023-08-17T07:26:43;23.30;;;11.95;;
4096;SDS011;2062;50.694;7.246;2023-08-17T07:29:10;22.67;;;11.73;;
4096;SDS011;2062;50.694;7.246;2023-08-17T07:31:37;27.08;;;12.05;;
4096;SDS011;2062;50.694;7.246;2023-08-17T07:34:04;20.97;;;12.00;;
4096;SDS011;2062;50.694;7.246;2023-08-17T07:36:31;22.05;;;11.43;;
4096;SDS011;2062;50.694;7.246;2023-08-17T07:39:00;25.83;;;11.68;;
4096;SDS011;2062;50.694;7.246;2023-08-17T07:41:27;24.15;;;12.25;;
4096;SDS011;2062;50.694;7.246;2023-08-17T07:43:54;25.83;;;13.00;;
4096;SDS011;2062;50.694;7.246;2023-08-17T07:46:20;21.67;;;11.77;;
4096;SDS011;2062;50.694;7.246;2023-08-17T07:48:47;23.55;;;11.85;;
4096;SDS011;2062;50.694;7.246;2023-08-17T07:51:14;22.42;;;11.98;;
4096;SDS011;2062;50.694;7.246;2023-08-17T07:53:41;22.17;;;12.07;;
4096;SDS011;2062;50.694;7.246;2023-08-17T07:56:09;23.13;;;11.82;;
4096;SDS011;2062;50.694;7.246;2023-08-17T07:58:36;20.90;;;11.13;;
4096;SDS011;2062;50.694;7.246;2023-08-17T08:01:03;23.15;;;11.48;;
4096;SDS011;2062;50.694;7.246;2023-08-17T08:03:30;21.02;;;11.82;;
4096;SDS011;2062;50.694;7.246;2023-08-17T08:05:57;19.70;;;11.52;;
4096;SDS011;2062;50.694;7.246;2023-08-17T08:08:24;19.67;;;11.00;;
4096;SDS011;2062;50.694;7.246;2023-08-17T08:10:52;21.73;;;11.37;;
4096;SDS011;2062;50.694;7.246;2023-08-17T08:13:20;20.67;;;11.88;;
4096;SDS011;2062;50.694;7.246;2023-08-17T08:15:47;21.75;;;12.25;;
4096;SDS011;2062;50.694;7.246;2023-08-17T08:18:14;24.95;;;12.45;;
4096;SDS011;2062;50.694;7.246;2023-08-17T08:20:41;21.83;;;11.77;;
4096;SDS011;2062;50.694;7.246;2023-08-17T08:23:08;23.83;;;11.53;;
4096;SDS011;2062;50.694;7.246;2023-08-17T08:25:35;21.20;;;11.82;;
4096;SDS011;2062;50.694;7.246;2023-08-17T08:28:02;22.05;;;11.45;;
4096;SDS011;2062;50.694;7.246;2023-08-17T08:30:30;25.52;;;11.27;;
4096;SDS011;2062;50.694;7.246;2023-08-17T08:32:57;22.40;;;12.07;;
4096;SDS011;2062;50.694;7.246;2023-08-17T08:35:25;24.20;;;12.13;;
4096;SDS011;2062;50.694;7.246;2023-08-17T08:37:53;21.63;;;11.73;;
4096;SDS011;2062;50.694;7.246;2023-08-17T08:40:28;22.52;;;11.45;;
4096;SDS011;2062;50.694;7.246;2023-08-17T08:42:56;19.67;;;10.60;;
4096;SDS011;2062;50.694;7.246;2023-08-17T08:45:24;19.88;;;10.98;;
4096;SDS011;2062;50.694;7.246;2023-08-17T08:47:55;23.13;;;11.07;;
4096;SDS011;2062;50.694;7.246;2023-08-17T08:50:23;20.40;;;10.68;;
4096;SDS011;2062;50.694;7.246;2023-08-17T08:52:58;22.10;;;10.98;;
4096;SDS011;2062;50.694;7.246;2023-08-17T08:55:26;23.48;;;11.55;;
4096;SDS011;2062;50.694;7.246;2023-08-17T08:57:56;20.27;;;10.80;;
4096;SDS011;2062;50.694;7.246;2023-08-17T09:00:24;20.87;;;10.97;;
4096;SDS011;2062;50.694;7.246;2023-08-17T09:02:51;21.08;;;10.75;;
4096;SDS011;2062;50.694;7.246;2023-08-17T09:05:21;21.80;;;10.98;;
4096;SDS011;2062;50.694;7.246;2023-08-17T09:07:49;18.77;;;10.73;;
4096;SDS011;2062;50.694;7.246;2023-08-17T09:10:16;19.25;;;9.65;;
4096;SDS011;2062;50.694;7.246;2023-08-17T09:12:43;22.43;;;10.63;;
4096;SDS011;2062;50.694;7.246;2023-08-17T09:15:11;18.30;;;10.32;;
4096;SDS011;2062;50.694;7.246;2023-08-17T09:17:38;19.73;;;10.88;;
4096;SDS011;2062;50.694;7.246;2023-08-17T09:20:06;22.50;;;11.55;;
4096;SDS011;2062;50.694;7.246;2023-08-17T09:22:39;21.30;;;10.52;;
4096;SDS011;2062;50.694;7.246;2023-08-17T09:25:08;19.47;;;11.07;;
4096;SDS011;2062;50.694;7.246;2023-08-17T09:27:36;20.67;;;10.40;;
4096;SDS011;2062;50.694;7.246;2023-08-17T09:30:04;20.45;;;10.45;;
4096;SDS011;2062;50.694;7.246;2023-08-17T09:32:32;22.50;;;10.32;;
4096;SDS011;2062;50.694;7.246;2023-08-17T09:35:00;19.08;;;10.35;;
4096;SDS011;2062;50.694;7.246;2023-08-17T09:37:28;20.10;;;10.37;;
4096;SDS011;2062;50.694;7.246;2023-08-17T09:39:56;20.30;;;10.80;;
4096;SDS011;2062;50.694;7.246;2023-08-17T09:42:23;20.27;;;10.15;;
4096;SDS011;2062;50.694;7.246;2023-08-17T09:44:50;18.02;;;9.85;;
4096;SDS011;2062;50.694;7.246;2023-08-17T09:47:18;16.08;;;9.30;;
4096;SDS011;2062;50.694;7.246;2023-08-17T09:49:47;20.80;;;9.47;;
4096;SDS011;2062;50.694;7.246;2023-08-17T09:52:14;16.63;;;9.48;;
4096;SDS011;2062;50.694;7.246;2023-08-17T09:54:41;17.23;;;9.43;;
4096;SDS011;2062;50.694;7.246;2023-08-17T09:57:10;18.65;;;9.70;;
4096;SDS011;2062;50.694;7.246;2023-08-17T09:59:38;17.00;;;9.98;;
4096;SDS011;2062;50.694;7.246;2023-08-17T10:02:05;15.43;;;9.30;;
4096;SDS011;2062;50.694;7.246;2023-08-17T10:04:41;15.82;;;10.10;;
4096;SDS011;2062;50.694;7.246;2023-08-17T10:07:08;16.83;;;9.10;;
4096;SDS011;2062;50.694;7.246;2023-08-17T10:09:39;14.10;;;8.52;;
4096;SDS011;2062;50.694;7.246;2023-08-17T10:12:11;14.88;;;9.20;;
4096;SDS011;2062;50.694;7.246;2023-08-17T10:14:45;15.73;;;9.03;;
4096;SDS011;2062;50.694;7.246;2023-08-17T10:17:18;13.95;;;8.48;;
4096;SDS011;2062;50.694;7.246;2023-08-17T10:19:52;13.15;;;8.00;;
4096;SDS011;2062;50.694;7.246;2023-08-17T10:22:23;13.70;;;7.85;;
4096;SDS011;2062;50.694;7.246;2023-08-17T10:24:55;12.93;;;7.18;;
4096;SDS011;2062;50.694;7.246;2023-08-17T10:27:24;13.23;;;7.00;;
4096;SDS011;2062;50.694;7.246;2023-08-17T10:29:52;9.55;;;6.15;;
4096;SDS011;2062;50.694;7.246;2023-08-17T10:32:20;12.93;;;7.03;;
4096;SDS011;2062;50.694;7.246;2023-08-17T10:34:49;10.45;;;5.72;;
4096;SDS011;2062;50.694;7.246;2023-08-17T10:37:18;9.60;;;5.93;;
4096;SDS011;2062;50.694;7.246;2023-08-17T10:39:45;10.70;;;5.83;;
4096;SDS011;2062;50.694;7.246;2023-08-17T10:42:13;11.00;;;6.00;;
4096;SDS011;2062;50.694;7.246;2023-08-17T10:44:44;11.10;;;5.97;;
4096;SDS011;2062;50.694;7.246;2023-08-17T10:47:18;13.40;;;5.80;;
4096;SDS011;2062;50.694;7.246;2023-08-17T10:49:49;9.35;;;5.55;;
4096;SDS011;2062;50.694;7.246;2023-08-17T10:52:24;10.30;;;5.70;;
4096;SDS011;2062;50.694;7.246;2023-08-17T10:54:52;8.38;;;5.25;;
4096;SDS011;2062;50.694;7.246;2023-08-17T11:00:12;10.23;;;5.28;;
4096;SDS011;2062;50.694;7.246;2023-08-17T11:02:51;10.63;;;4.95;;
4096;SDS011;2062;50.694;7.246;2023-08-17T11:05:40;9.27;;;4.90;;
4096;SDS011;2062;50.694;7.246;2023-08-17T11:08:08;8.30;;;4.60;;
4096;SDS011;2062;50.694;7.246;2023-08-17T11:10:36;7.32;;;4.10;;
4096;SDS011;2062;50.694;7.246;2023-08-17T11:13:04;9.05;;;4.05;;
4096;SDS011;2062;50.694;7.246;2023-08-17T11:15:36;9.77;;;4.07;;
4096;SDS011;2062;50.694;7.246;2023-08-17T11:18:05;6.47;;;3.83;;
4096;SDS011;2062;50.694;7.246;2023-08-17T11:20:33;7.53;;;3.97;;
4096;SDS011;2062;50.694;7.246;2023-08-17T11:23:00;6.60;;;3.83;;
4096;SDS011;2062;50.694;7.246;2023-08-17T11:25:27;9.98;;;4.20;;
4096;SDS011;2062;50.694;7.246;2023-08-17T11:27:55;7.68;;;4.32;;
4096;SDS011;2062;50.694;7.246;2023-08-17T11:30:22;7.80;;;4.43;;
4096;SDS011;2062;50.694;7.246;2023-08-17T11:32:51;7.88;;;4.72;;
4096;SDS011;2062;50.694;7.246;2023-08-17T11:35:19;10.18;;;4.53;;
4096;SDS011;2062;50.694;7.246;2023-08-17T11:37:47;8.60;;;3.92;;
4096;SDS011;2062;50.694;7.246;2023-08-17T11:40:14;7.85;;;4.22;;
4096;SDS011;2062;50.694;7.246;2023-08-17T11:42:42;6.77;;;4.20;;
4096;SDS011;2062;50.694;7.246;2023-08-17T11:45:09;7.95;;;3.90;;
4096;SDS011;2062;50.694;7.246;2023-08-17T11:47:36;6.30;;;3.80;;
4096;SDS011;2062;50.694;7.246;2023-08-17T11:50:06;8.05;;;3.67;;
4096;SDS011;2062;50.694;7.246;2023-08-17T11:52:34;6.85;;;4.30;;
4096;SDS011;2062;50.694;7.246;2023-08-17T11:55:02;6.70;;;4.10;;
4096;SDS011;2062;50.694;7.246;2023-08-17T11:57:30;8.32;;;4.80;;
4096;SDS011;2062;50.694;7.246;2023-08-17T11:59:58;7.97;;;4.50;;
4096;SDS011;2062;50.694;7.246;2023-08-17T12:02:25;7.03;;;4.13;;
4096;SDS011;2062;50.694;7.246;2023-08-17T12:04:54;9.88;;;4.38;;
4096;SDS011;2062;50.694;7.246;2023-08-17T12:07:23;6.97;;;4.10;;
4096;SDS011;2062;50.694;7.246;2023-08-17T12:09:50;9.10;;;4.50;;
4096;SDS011;2062;50.694;7.246;2023-08-17T12:12:19;8.27;;;4.70;;
4096;SDS011;2062;50.694;7.246;2023-08-17T12:14:47;7.13;;;4.07;;
4096;SDS011;2062;50.694;7.246;2023-08-17T12:17:14;9.30;;;5.00;;
4096;SDS011;2062;50.694;7.246;2023-08-17T12:19:42;8.47;;;4.93;;
4096;SDS011;2062;50.694;7.246;2023-08-17T12:22:09;8.20;;;4.55;;
4096;SDS011;2062;50.694;7.246;2023-08-17T12:24:40;8.25;;;4.53;;
4096;SDS011;2062;50.694;7.246;2023-08-17T12:27:07;7.80;;;4.57;;
4096;SDS011;2062;50.694;7.246;2023-08-17T12:29:34;8.63;;;4.47;;
4096;SDS011;2062;50.694;7.246;2023-08-17T12:32:13;6.90;;;4.20;;
4096;SDS011;2062;50.694;7.246;2023-08-17T12:34:40;7.60;;;3.97;;
4096;SDS011;2062;50.694;7.246;2023-08-17T12:37:08;8.00;;;4.22;;
4096;SDS011;2062;50.694;7.246;2023-08-17T12:39:35;6.93;;;4.45;;
4096;SDS011;2062;50.694;7.246;2023-08-17T12:42:04;7.60;;;4.05;;
4096;SDS011;2062;50.694;7.246;2023-08-17T12:44:31;7.27;;;3.90;;
4096;SDS011;2062;50.694;7.246;2023-08-17T12:46:58;7.80;;;4.18;;
4096;SDS011;2062;50.694;7.246;2023-08-17T12:49:25;8.45;;;4.40;;
4096;SDS011;2062;50.694;7.246;2023-08-17T12:51:52;7.47;;;4.15;;
4096;SDS011;2062;50.694;7.246;2023-08-17T12:54:19;7.13;;;4.13;;
4096;SDS011;2062;50.694;7.246;2023-08-17T12:56:46;6.97;;;4.30;;
4096;SDS011;2062;50.694;7.246;2023-08-17T12:59:14;6.65;;;3.97;;
4096;SDS011;2062;50.694;7.246;2023-08-17T13:01:41;7.82;;;4.60;;
4096;SDS011;2062;50.694;7.246;2023-08-17T13:04:08;7.00;;;4.63;;
4096;SDS011;2062;50.694;7.246;2023-08-17T13:06:35;8.30;;;4.50;;
4096;SDS011;2062;50.694;7.246;2023-08-17T13:09:02;6.80;;;4.60;;
4096;SDS011;2062;50.694;7.246;2023-08-17T13:11:29;6.45;;;4.25;;
4096;SDS011;2062;50.694;7.246;2023-08-17T13:13:57;9.00;;;4.78;;
4096;SDS011;2062;50.694;7.246;2023-08-17T13:16:25;5.97;;;3.70;;
4096;SDS011;2062;50.694;7.246;2023-08-17T13:18:52;7.95;;;4.03;;
4096;SDS011;2062;50.694;7.246;2023-08-17T13:21:19;6.60;;;3.90;;
4096;SDS011;2062;50.694;7.246;2023-08-17T13:23:46;8.05;;;4.13;;
4096;SDS011;2062;50.694;7.246;2023-08-17T13:26:13;7.05;;;4.07;;
4096;SDS011;2062;50.694;7.246;2023-08-17T13:28:39;7.68;;;4.25;;
4096;SDS011;2062;50.694;7.246;2023-08-17T13:31:06;7.18;;;3.92;;
4096;SDS011;2062;50.694;7.246;2023-08-17T13:33:34;6.27;;;3.60;;
4096;SDS011;2062;50.694;7.246;2023-08-17T13:36:01;6.25;;;3.65;;
4096;SDS011;2062;50.694;7.246;2023-08-17T13:38:28;7.25;;;4.00;;
4096;SDS011;2062;50.694;7.246;2023-08-17T13:40:56;6.95;;;3.75;;
4096;SDS011;2062;50.694;7.246;2023-08-17T13:43:23;6.43;;;3.70;;
4096;SDS011;2062;50.694;7.246;2023-08-17T13:45:50;5.77;;;3.23;;
4096;SDS011;2062;50.694;7.246;2023-08-17T13:48:17;8.05;;;3.58;;
4096;SDS011;2062;50.694;7.246;2023-08-17T13:50:45;6.70;;;3.63;;
4096;SDS011;2062;50.694;7.246;2023-08-17T13:53:12;5.97;;;3.75;;
4096;SDS011;2062;50.694;7.246;2023-08-17T13:55:39;6.63;;;4.10;;
4096;SDS011;2062;50.694;7.246;2023-08-17T13:58:06;8.17;;;3.63;;
4096;SDS011;2062;50.694;7.246;2023-08-17T14:00:35;7.35;;;4.18;;
4096;SDS011;2062;50.694;7.246;2023-08-17T14:03:02;7.70;;;4.60;;
4096;SDS011;2062;50.694;7.246;2023-08-17T14:05:31;7.80;;;4.20;;
4096;SDS011;2062;50.694;7.246;2023-08-17T14:07:59;8.55;;;4.78;;
4096;SDS011;2062;50.694;7.246;2023-08-17T14:10:28;8.80;;;4.67;;
4096;SDS011;2062;50.694;7.246;2023-08-17T14:12:55;11.73;;;5.43;;
4096;SDS011;2062;50.694;7.246;2023-08-17T14:15:22;8.68;;;5.63;;
4096;SDS011;2062;50.694;7.246;2023-08-17T14:17:49;9.07;;;5.53;;
4096;SDS011;2062;50.694;7.246;2023-08-17T14:20:16;9.85;;;6.03;;
4096;SDS011;2062;50.694;7.246;2023-08-17T14:22:43;8.57;;;5.03;;
4096;SDS011;2062;50.694;7.246;2023-08-17T14:25:11;9.45;;;5.20;;
4096;SDS011;2062;50.694;7.246;2023-08-17T14:27:38;12.00;;;6.43;;
4096;SDS011;2062;50.694;7.246;2023-08-17T14:30:05;22.67;;;9.35;;
4096;SDS011;2062;50.694;7.246;2023-08-17T14:32:33;24.73;;;9.00;;
4096;SDS011;2062;50.694;7.246;2023-08-17T14:35:00;42.37;;;12.93;;
4096;SDS011;2062;50.694;7.246;2023-08-17T14:37:26;22.13;;;9.20;;
4096;SDS011;2062;50.694;7.246;2023-08-17T14:39:53;57.13;;;17.25;;
4096;SDS011;2062;50.694;7.246;2023-08-17T14:42:22;26.05;;;10.00;;
4096;SDS011;2062;50.694;7.246;2023-08-17T14:44:49;18.20;;;7.28;;
4096;SDS011;2062;50.694;7.246;2023-08-17T14:47:16;14.23;;;7.00;;
4096;SDS011;2062;50.694;7.246;2023-08-17T14:49:43;13.35;;;6.93;;
4096;SDS011;2062;50.694;7.246;2023-08-17T14:52:10;11.88;;;5.60;;
4096;SDS011;2062;50.694;7.246;2023-08-17T14:54:37;10.05;;;5.55;;
4096;SDS011;2062;50.694;7.246;2023-08-17T14:57:04;9.52;;;5.40;;
4096;SDS011;2062;50.694;7.246;2023-08-17T14:59:32;8.33;;;5.47;;
4096;SDS011;2062;50.694;7.246;2023-08-17T15:01:59;8.98;;;5.28;;